Date,TemperatureHighF,TemperatureAvgF,TemperatureLowF,DewpointHighF,DewpointAvgF,DewpointLowF,HumidityHigh,HumidityAvg,HumidityLow,PressureMaxIn,PressureMinIn,WindSpeedMaxMPH,WindSpeedAvgMPH,GustSpeedMaxMPH,PrecipitationSumIn
2013-8-1,68.0,64.2,57.0,51.0,48.0,46.0,71,57,46,0.00,40.00,9,5,12,0.00
2013-8-2,66.0,58.9,54.0,52.0,50.2,48.0,90,73,54,0.00,40.00,12,4,16,0.00
2013-8-3,59.0,54.4,50.0,53.0,50.0,47.0,100,86,68,0.00,40.00,11,8,15,0.00
2013-8-4,54.0,48.7,46.0,52.0,48.5,46.0,100,99,89,0.00,40.00,10,8,13,0.13
2013-8-5,54.0,49.8,48.0,52.0,49.7,48.0,100,100,94,0.00,40.00,9,4,13,0.01
2013-8-6,64.0,54.8,48.0,52.0,48.0,41.0,100,80,43,0.00,40.00,10,3,14,0.00
2013-8-7,61.0,55.3,52.0,50.0,47.4,43.0,95,77,52,0.00,40.00,12,4,15,0.00
2013-8-8,55.0,51.6,50.0,52.0,48.8,44.0,100,91,69,0.00,40.00,10,6,13,0.17
2013-8-9,50.0,49.0,48.0,50.0,45.7,42.0,100,89,75,0.00,40.00,11,9,15,0.01
2013-8-10,59.0,51.9,45.0,49.0,43.6,40.0,92,74,60,0.00,40.00,10,5,13,0.00
2013-8-11,64.0,56.4,48.0,50.0,47.6,43.0,99,74,55,0.00,40.00,4,2,6,0.00
2013-8-12,64.0,56.9,54.0,50.0,47.9,43.0,87,72,56,0.00,40.00,4,2,6,0.00
2013-8-14,64.0,57.4,50.0,54.0,48.2,-99.9,100,80,61,0.00,40.00,5,2,7,0.00
2013-8-15,63.0,52.8,52.0,55.0,40.9,-99.9,100,82,67,0.00,40.00,13,4,16,0.00
2013-8-16,54.0,48.9,48.0,54.0,47.8,-99.9,100,100,97,0.00,40.00,11,8,15,0.05
2013-8-17,50.0,47.4,46.0,50.0,46.3,-99.9,100,99,95,0.00,40.00,10,6,13,0.01
2013-8-18,46.0,45.1,43.0,46.0,45.0,43.0,100,100,97,0.00,40.00,10,8,14,0.01
2013-8-19,45.0,44.5,43.0,45.0,44.1,43.0,100,99,96,0.00,40.00,9,9,13,0.00
2013-8-20,45.0,45.0,45.0,45.0,43.6,40.0,100,95,83,0.00,40.00,10,8,15,0.01
2013-8-21,45.0,43.7,43.0,45.0,42.0,40.0,100,94,89,0.00,40.00,10,10,18,0.00
2013-8-25,55.0,50.1,46.0,54.0,48.0,43.0,100,93,74,0.00,40.00,4,2,8,0.00
2013-8-26,50.0,48.0,46.0,50.0,47.7,45.0,100,99,88,0.00,40.00,6,2,10,0.01
2013-8-27,52.0,48.9,48.0,48.0,42.9,40.0,94,79,71,0.00,40.00,6,4,9,0.00
2013-8-28,50.0,48.6,48.0,48.0,46.8,45.0,100,94,84,0.00,40.00,9,7,12,0.00
2013-8-29,57.0,53.4,48.0,45.0,40.8,38.0,88,63,51,0.00,40.00,7,4,10,0.00
2013-8-30,55.0,52.3,48.0,50.0,41.5,35.0,100,68,53,0.00,40.00,9,6,13,0.04
2013-9-1,48.0,48.0,48.0,48.0,48.0,48.0,100,100,100,0.00,40.00,8,7,13,1.38
2013-9-2,50.0,47.4,46.0,48.0,46.8,46.0,100,98,91,0.00,40.00,9,6,14,0.01
2013-9-3,50.0,49.0,46.0,48.0,46.0,43.0,100,90,78,0.00,40.00,14,11,22,0.16
2013-9-5,45.0,45.0,45.0,45.0,45.0,45.0,100,100,100,0.00,40.00,10,10,12,0.00
2013-9-7,52.0,45.1,50.0,52.0,34.7,-99.9,100,90,100,0.00,40.00,18,11,28,0.41
2013-9-8,50.0,43.2,45.0,50.0,31.7,-99.9,100,85,71,0.00,40.00,14,9,25,1.16
2013-9-9,45.0,43.5,43.0,41.0,39.6,38.0,95,88,84,0.00,40.00,12,11,18,0.00
2013-9-10,46.0,45.8,45.0,43.0,4.0,-99.9,94,57,66,0.00,40.00,7,6,9,0.00
2013-9-11,55.0,50.7,45.0,52.0,49.1,45.0,100,95,76,0.00,40.00,13,10,22,0.02
2013-9-12,52.0,48.2,46.0,50.0,44.7,41.0,100,89,68,0.00,40.00,11,6,15,0.43
2013-9-13,48.0,46.6,45.0,41.0,39.6,38.0,83,76,71,0.00,40.00,9,6,13,0.00
2013-9-14,54.0,49.5,46.0,42.0,32.9,-99.9,67,56,49,0.00,40.00,4,2,7,0.00
2013-9-15,57.0,52.4,48.0,43.0,38.7,29.0,70,60,45,0.00,40.00,7,4,12,0.00
2013-9-16,50.0,45.7,43.0,45.0,43.7,41.0,100,93,70,0.00,40.00,10,4,12,0.06